Time;durP1;ratioP1;P1;durP2;ratioP2;P2;SDS_P1;SDS_P2;PMS_P1;PMS_P2;Temp;Humidity;BMP_temperature;BMP_pressure;BME280_temperature;BME280_humidity;BME280_pressure;Samples;Min_cycle;Max_cycle;Signal;HPM_P1;HPM_P2
2023/12/13 00:01:30;;;;;;;6.90;6.07;;;2.90;99.90;;;;;;4921601;29;20463;-63
2023/12/13 00:03:56;;;;;;;7.20;6.60;;;3.00;99.90;;;;;;4924586;29;20959;-62
2023/12/13 00:06:23;;;;;;;7.00;6.30;;;3.00;99.90;;;;;;4927648;29;20915;-62
2023/12/13 00:08:50;;;;;;;7.23;6.53;;;3.00;99.90;;;;;;4928581;29;20570;-62
2023/12/13 00:11:16;;;;;;;8.93;7.30;;;3.10;99.90;;;;;;4926046;29;20534;-63
2023/12/13 00:13:44;;;;;;;8.00;7.20;;;3.10;99.90;;;;;;4927112;29;20495;-63
2023/12/13 00:16:12;;;;;;;10.33;6.30;;;3.20;99.90;;;;;;4924543;29;20483;-62
2023/12/13 00:18:39;;;;;;;7.97;7.07;;;3.30;99.90;;;;;;4928627;29;20491;-62
2023/12/13 00:21:06;;;;;;;8.77;7.03;;;3.30;99.90;;;;;;4922634;29;20455;-63
2023/12/13 00:23:33;;;;;;;7.77;6.90;;;3.40;99.90;;;;;;4929054;29;20491;-63
2023/12/13 00:26:00;;;;;;;16.07;6.80;;;3.40;99.90;;;;;;4928034;29;20590;-62
2023/12/13 00:28:26;;;;;;;8.17;7.47;;;3.50;99.90;;;;;;4923780;29;20492;-61
2023/12/13 00:30:53;;;;;;;13.23;7.27;;;3.50;99.90;;;;;;4920486;29;20573;-61
2023/12/13 00:33:21;;;;;;;6.60;6.00;;;3.50;99.90;;;;;;4927624;29;20816;-63
2023/12/13 00:35:47;;;;;;;8.87;6.80;;;3.60;99.90;;;;;;4923960;29;20487;-62
2023/12/13 00:38:14;;;;;;;9.40;6.53;;;3.50;99.90;;;;;;4931901;29;20503;-62
2023/12/13 00:40:40;;;;;;;7.53;6.83;;;3.50;99.90;;;;;;4925341;29;21083;-63
2023/12/13 00:43:07;;;;;;;7.60;6.90;;;3.60;99.90;;;;;;4931115;29;21100;-62
2023/12/13 00:45:34;;;;;;;7.50;6.80;;;3.60;99.90;;;;;;4931081;29;21076;-62
2023/12/13 00:48:01;;;;;;;7.00;6.40;;;3.60;99.90;;;;;;4932314;29;20563;-63
2023/12/13 00:50:29;;;;;;;7.60;6.90;;;3.70;99.90;;;;;;4932467;29;20490;-63
2023/12/13 00:52:56;;;;;;;9.23;6.70;;;3.70;99.90;;;;;;4935105;29;20455;-62
2023/12/13 00:55:23;;;;;;;6.87;6.23;;;3.70;99.90;;;;;;4934557;29;20463;-62
2023/12/13 00:57:49;;;;;;;7.67;6.63;;;3.60;99.90;;;;;;4925468;29;20852;-62
2023/12/13 01:00:16;;;;;;;7.67;6.83;;;3.70;99.90;;;;;;4931066;29;20459;-62
2023/12/13 01:02:43;;;;;;;7.47;6.67;;;3.70;99.90;;;;;;4924641;29;20463;-62
2023/12/13 01:05:11;;;;;;;11.30;7.93;;;3.80;99.90;;;;;;4932126;29;20439;-63
2023/12/13 01:07:38;;;;;;;7.87;7.27;;;3.70;99.90;;;;;;4931041;29;20459;-63
2023/12/13 01:10:06;;;;;;;9.00;7.50;;;3.70;99.90;;;;;;4930379;29;20811;-61
2023/12/13 01:12:32;;;;;;;10.00;8.03;;;3.80;99.90;;;;;;4931034;29;20514;-62
2023/12/13 01:14:59;;;;;;;10.33;8.00;;;3.70;99.90;;;;;;4927076;29;20494;-62
2023/12/13 01:17:26;;;;;;;8.90;7.93;;;3.80;99.90;;;;;;4927779;29;20575;-63
2023/12/13 01:19:52;;;;;;;12.63;8.37;;;3.70;99.90;;;;;;4931096;29;21016;-63
2023/12/13 01:22:19;;;;;;;10.43;8.07;;;3.80;99.90;;;;;;4929440;29;20494;-63
2023/12/13 01:24:47;;;;;;;10.90;8.57;;;3.80;99.90;;;;;;4928312;29;20468;-62
2023/12/13 01:27:14;;;;;;;10.13;8.53;;;3.80;99.90;;;;;;4929930;29;20526;-61
2023/12/13 01:29:40;;;;;;;12.00;9.57;;;3.80;99.90;;;;;;4931671;29;20518;-62
2023/12/13 01:32:07;;;;;;;9.30;8.40;;;3.80;99.90;;;;;;4933125;29;20494;-62
2023/12/13 01:34:34;;;;;;;12.27;10.30;;;3.90;99.90;;;;;;4927093;29;20460;-62
2023/12/13 01:37:01;;;;;;;11.83;9.70;;;3.90;99.90;;;;;;4933532;29;20487;-61
2023/12/13 01:39:27;;;;;;;12.37;9.27;;;3.90;99.90;;;;;;4929733;29;20456;-63
2023/12/13 01:41:57;;;;;;;10.90;9.23;;;3.90;99.90;;;;;;4936009;29;20467;-62
2023/12/13 01:44:24;;;;;;;11.20;9.20;;;3.90;99.90;;;;;;4932749;29;20463;-62
2023/12/13 01:46:51;;;;;;;11.00;9.07;;;3.90;99.90;;;;;;4934259;29;20487;-62
2023/12/13 01:49:18;;;;;;;10.70;9.57;;;3.90;99.90;;;;;;4932782;29;20467;-62
2023/12/13 01:51:45;;;;;;;11.73;9.13;;;3.90;99.90;;;;;;4935795;29;20538;-63
2023/12/13 01:54:15;;;;;;;12.37;10.10;;;3.90;99.90;;;;;;4930683;29;20498;-62
2023/12/13 01:56:44;;;;;;;11.27;9.67;;;3.90;99.90;;;;;;4934649;29;20487;-62
2023/12/13 01:59:12;;;;;;;11.27;9.37;;;4.00;99.90;;;;;;4933555;29;20471;-62
2023/12/13 02:01:39;;;;;;;13.63;10.27;;;4.00;99.90;;;;;;4934221;29;20864;-63
2023/12/13 02:04:06;;;;;;;11.70;9.87;;;4.00;99.90;;;;;;4931063;29;20470;-62
2023/12/13 02:06:33;;;;;;;9.10;8.20;;;4.00;99.90;;;;;;4933665;29;20471;-63
2023/12/13 02:09:00;;;;;;;15.03;10.50;;;4.00;99.90;;;;;;4927948;29;20529;-61
2023/12/13 02:11:26;;;;;;;14.17;10.17;;;4.00;99.90;;;;;;4929552;29;20546;-63
2023/12/13 02:13:53;;;;;;;11.83;9.60;;;4.00;99.90;;;;;;4932528;29;20977;-63
2023/12/13 02:16:21;;;;;;;14.70;10.07;;;4.10;99.90;;;;;;4932853;29;20494;-63
2023/12/13 02:18:48;;;;;;;12.53;9.90;;;4.10;99.90;;;;;;4937371;29;20491;-62
2023/12/13 02:21:15;;;;;;;14.10;11.17;;;4.10;99.90;;;;;;4933220;29;20459;-62
2023/12/13 02:23:43;;;;;;;11.27;9.47;;;4.20;99.90;;;;;;4933511;29;20459;-62
2023/12/13 02:26:11;;;;;;;15.50;10.40;;;4.20;99.90;;;;;;4934471;29;20537;-62
2023/12/13 02:28:38;;;;;;;11.40;10.20;;;4.20;99.90;;;;;;4931151;29;20817;-61
2023/12/13 02:31:04;;;;;;;15.90;10.83;;;4.10;99.90;;;;;;4931729;29;20522;-62
2023/12/13 02:33:31;;;;;;;13.13;10.30;;;4.20;99.90;;;;;;4930550;29;20463;-62
2023/12/13 02:35:59;;;;;;;12.97;10.23;;;4.20;99.90;;;;;;4929959;29;20491;-61
2023/12/13 02:38:26;;;;;;;13.87;11.23;;;4.20;99.90;;;;;;4929587;29;20510;-62
2023/12/13 02:40:54;;;;;;;12.33;9.80;;;4.30;99.90;;;;;;4933154;29;20467;-63
2023/12/13 02:43:20;;;;;;;14.90;10.77;;;4.20;99.90;;;;;;4931624;29;20519;-62
2023/12/13 02:45:47;;;;;;;13.40;10.90;;;4.20;99.90;;;;;;4929310;29;20514;-62
2023/12/13 02:48:14;;;;;;;15.10;11.10;;;4.20;99.90;;;;;;4933910;29;20467;-63
2023/12/13 02:50:40;;;;;;;17.33;10.23;;;4.20;99.90;;;;;;4929466;29;20602;-63
2023/12/13 02:53:07;;;;;;;12.40;10.23;;;4.30;99.90;;;;;;4933010;29;21057;-62
2023/12/13 02:55:34;;;;;;;13.90;10.60;;;4.20;99.90;;;;;;4933577;29;20570;-62
2023/12/13 02:58:02;;;;;;;14.00;10.97;;;4.30;99.90;;;;;;4933928;29;20467;-62
2023/12/13 03:00:28;;;;;;;15.00;11.03;;;4.30;99.90;;;;;;4931964;29;20467;-62
2023/12/13 03:02:57;;;;;;;17.47;11.73;;;4.30;99.90;;;;;;4931568;29;20471;-64
2023/12/13 03:05:24;;;;;;;16.80;11.87;;;4.30;99.90;;;;;;4930747;29;20459;-63
2023/12/13 03:07:51;;;;;;;15.57;11.47;;;4.40;99.90;;;;;;4933964;29;20495;-61
2023/12/13 03:10:17;;;;;;;15.93;11.50;;;4.40;99.90;;;;;;4931594;29;20550;-62
2023/12/13 03:12:44;;;;;;;14.90;11.07;;;4.40;99.90;;;;;;4935293;29;20451;-62
2023/12/13 03:15:12;;;;;;;12.23;11.00;;;4.40;99.90;;;;;;4932611;29;20483;-62
2023/12/13 03:17:39;;;;;;;15.90;10.80;;;4.40;99.90;;;;;;4930059;29;20546;-63
2023/12/13 03:20:06;;;;;;;16.00;11.20;;;4.40;99.90;;;;;;4934754;29;20471;-63
2023/12/13 03:22:33;;;;;;;14.70;11.00;;;4.40;99.90;;;;;;4924560;29;20466;-62
2023/12/13 03:25:00;;;;;;;12.83;10.13;;;4.40;99.90;;;;;;4933976;29;20463;-62
2023/12/13 03:27:26;;;;;;;16.93;10.90;;;4.40;99.90;;;;;;4934111;29;20901;-62
2023/12/13 03:29:53;;;;;;;14.13;10.90;;;4.40;99.90;;;;;;4932755;29;20463;-62
2023/12/13 03:32:21;;;;;;;14.13;10.93;;;4.40;99.90;;;;;;4931217;29;20548;-63
2023/12/13 03:34:47;;;;;;;13.37;11.20;;;4.40;99.90;;;;;;4933233;29;20526;-62
2023/12/13 03:37:15;;;;;;;14.33;12.07;;;4.30;99.90;;;;;;4932614;29;20487;-62
2023/12/13 03:39:42;;;;;;;16.23;12.30;;;4.40;99.90;;;;;;4930861;29;20467;-63
2023/12/13 03:42:08;;;;;;;19.23;11.90;;;4.40;99.90;;;;;;4923857;29;20549;-62
2023/12/13 03:44:35;;;;;;;19.53;12.77;;;4.40;99.90;;;;;;4933243;29;20528;-62
2023/12/13 03:47:01;;;;;;;16.03;12.30;;;4.40;99.90;;;;;;4931221;29;20574;-63
2023/12/13 03:49:29;;;;;;;17.40;11.80;;;4.40;99.90;;;;;;4933167;29;20521;-63
2023/12/13 03:51:56;;;;;;;15.30;12.40;;;4.40;99.90;;;;;;4928993;29;20990;-63
2023/12/13 03:54:22;;;;;;;18.03;11.93;;;4.40;99.90;;;;;;4929148;29;20471;-62
2023/12/13 03:56:49;;;;;;;18.33;12.67;;;4.40;99.90;;;;;;4933743;29;20491;-63
2023/12/13 03:59:15;;;;;;;14.50;12.73;;;4.40;99.90;;;;;;4926901;29;20522;-62
2023/12/13 04:01:42;;;;;;;17.63;13.23;;;4.40;99.90;;;;;;4932201;29;20499;-63
2023/12/13 04:04:08;;;;;;;19.40;13.90;;;4.40;99.90;;;;;;4931740;29;21032;-63
2023/12/13 04:06:36;;;;;;;18.43;12.73;;;4.50;99.90;;;;;;4931482;29;20570;-62
2023/12/13 04:09:03;;;;;;;17.67;13.03;;;4.50;99.90;;;;;;4927905;29;20566;-62
2023/12/13 04:11:30;;;;;;;17.23;12.40;;;4.40;99.90;;;;;;4932412;29;20871;-62
2023/12/13 04:13:56;;;;;;;21.47;13.50;;;4.40;99.90;;;;;;4929941;29;20464;-63
2023/12/13 04:16:23;;;;;;;14.90;12.33;;;4.40;99.90;;;;;;4924603;29;20610;-62
2023/12/13 04:18:49;;;;;;;15.00;11.73;;;4.40;99.90;;;;;;4930140;29;20526;-62
2023/12/13 04:21:16;;;;;;;18.30;13.30;;;4.50;99.90;;;;;;4931911;29;20530;-62
2023/12/13 04:23:44;;;;;;;14.43;12.67;;;4.50;99.90;;;;;;4932738;29;20467;-62
2023/12/13 04:26:11;;;;;;;17.10;12.63;;;4.50;99.90;;;;;;4933196;29;20498;-62
2023/12/13 04:28:37;;;;;;;18.60;12.13;;;4.50;99.90;;;;;;4932795;29;20463;-62
2023/12/13 04:31:05;;;;;;;18.47;13.00;;;4.50;99.90;;;;;;4932755;29;20467;-63
2023/12/13 04:33:33;;;;;;;17.77;13.73;;;4.50;99.90;;;;;;4930820;29;20471;-61
2023/12/13 04:36:00;;;;;;;19.77;13.90;;;4.60;99.90;;;;;;4926366;29;21023;-61
2023/12/13 04:38:27;;;;;;;13.97;11.67;;;4.50;99.90;;;;;;4926382;29;20884;-61
2023/12/13 04:40:55;;;;;;;19.77;13.70;;;4.60;99.90;;;;;;4929524;29;20467;-62
2023/12/13 04:43:21;;;;;;;17.17;13.13;;;4.60;99.90;;;;;;4929031;29;20969;-62
2023/12/13 04:45:48;;;;;;;15.20;12.47;;;4.50;99.90;;;;;;4926757;29;20573;-62
2023/12/13 04:48:14;;;;;;;18.50;13.70;;;4.60;99.90;;;;;;4931624;29;20463;-62
2023/12/13 04:50:41;;;;;;;17.93;12.87;;;4.60;99.90;;;;;;4920620;29;20499;-63
2023/12/13 04:53:07;;;;;;;20.30;13.10;;;4.60;99.90;;;;;;4933074;29;20550;-61
2023/12/13 04:55:34;;;;;;;21.60;13.37;;;4.60;99.90;;;;;;4930924;29;20542;-61
2023/12/13 04:58:02;;;;;;;16.80;12.60;;;4.60;99.90;;;;;;4932695;29;20531;-62
2023/12/13 05:00:28;;;;;;;15.07;11.60;;;4.60;99.90;;;;;;4933112;29;20467;-62
2023/12/13 05:02:55;;;;;;;17.97;12.67;;;4.60;99.90;;;;;;4931962;29;20542;-62
2023/12/13 05:05:22;;;;;;;17.00;12.90;;;4.60;99.90;;;;;;4925963;29;20494;-62
2023/12/13 05:07:48;;;;;;;17.83;13.07;;;4.60;99.90;;;;;;4924728;29;20522;-62
2023/12/13 05:10:15;;;;;;;15.50;12.03;;;4.60;99.90;;;;;;4930157;29;20467;-63
2023/12/13 05:12:42;;;;;;;20.83;12.90;;;4.60;99.90;;;;;;4932530;29;20491;-62
2023/12/13 05:15:10;;;;;;;21.40;14.13;;;4.60;99.90;;;;;;4931340;29;20526;-62
2023/12/13 05:17:37;;;;;;;17.73;13.30;;;4.60;99.90;;;;;;4930920;29;20455;-62
2023/12/13 05:20:04;;;;;;;18.50;12.73;;;4.60;99.90;;;;;;4932235;29;20498;-63
2023/12/13 05:22:31;;;;;;;25.97;13.00;;;4.60;99.90;;;;;;4933459;29;20470;-63
2023/12/13 05:24:58;;;;;;;19.53;12.93;;;4.60;99.90;;;;;;4927424;29;20965;-62
2023/12/13 05:27:24;;;;;;;19.03;13.30;;;4.50;99.90;;;;;;4931418;29;20499;-62
2023/12/13 05:29:51;;;;;;;17.90;13.60;;;4.50;99.90;;;;;;4928800;29;20499;-60
2023/12/13 05:32:19;;;;;;;15.40;12.17;;;4.60;99.90;;;;;;4925379;29;20480;-61
2023/12/13 05:34:46;;;;;;;20.53;13.87;;;4.60;99.90;;;;;;4926574;29;21041;-60
2023/12/13 05:37:12;;;;;;;20.73;14.57;;;4.60;99.90;;;;;;4930139;29;20494;-59
2023/12/13 05:39:39;;;;;;;18.93;13.87;;;4.50;99.90;;;;;;4924173;29;20463;-60
2023/12/13 05:42:05;;;;;;;23.13;14.13;;;4.60;99.90;;;;;;4929092;29;20548;-59
2023/12/13 05:44:32;;;;;;;17.40;13.43;;;4.60;99.90;;;;;;4924030;29;20534;-60
2023/12/13 05:46:59;;;;;;;21.07;14.47;;;4.60;99.90;;;;;;4920286;29;21080;-60
2023/12/13 05:49:27;;;;;;;19.53;13.53;;;4.60;99.90;;;;;;4924803;29;20503;-59
2023/12/13 05:51:53;;;;;;;20.80;14.50;;;4.60;99.90;;;;;;4929031;29;21171;-59
2023/12/13 05:54:20;;;;;;;19.53;14.50;;;4.50;99.90;;;;;;4931528;29;20837;-60
2023/12/13 05:56:47;;;;;;;18.10;13.20;;;4.50;99.90;;;;;;4930070;29;20497;-60
2023/12/13 05:59:13;;;;;;;20.93;14.60;;;4.60;99.90;;;;;;4929396;29;20614;-60
2023/12/13 06:01:40;;;;;;;24.77;14.33;;;4.60;99.90;;;;;;4928032;29;20463;-62
2023/12/13 06:04:06;;;;;;;19.20;14.63;;;4.60;99.90;;;;;;4924222;29;20467;-61
2023/12/13 06:06:34;;;;;;;23.77;15.37;;;4.60;99.90;;;;;;4929160;29;20837;-60
2023/12/13 06:09:03;;;;;;;18.83;14.63;;;4.60;99.90;;;;;;4932312;29;20916;-58
2023/12/13 06:11:30;;;;;;;27.20;16.53;;;4.60;99.90;;;;;;4934742;29;20518;-61
2023/12/13 06:13:56;;;;;;;20.23;15.07;;;4.60;99.90;;;;;;4937708;29;20470;-61
2023/12/13 06:16:23;;;;;;;18.57;14.80;;;4.60;99.90;;;;;;4932155;29;20547;-61
2023/12/13 06:18:49;;;;;;;17.47;14.47;;;4.70;99.90;;;;;;4935909;29;20957;-61
2023/12/13 06:21:16;;;;;;;18.93;15.33;;;4.70;99.90;;;;;;4928760;29;20468;-61
2023/12/13 06:23:44;;;;;;;22.63;14.03;;;4.70;99.90;;;;;;4933004;29;20460;-60
2023/12/13 06:26:11;;;;;;;19.30;14.60;;;4.70;99.90;;;;;;4932107;29;20518;-62
2023/12/13 06:28:40;;;;;;;22.33;15.17;;;4.70;99.90;;;;;;4935052;29;20821;-62
2023/12/13 06:31:07;;;;;;;18.07;14.67;;;4.70;99.90;;;;;;4926371;29;20855;-62
2023/12/13 06:33:34;;;;;;;24.40;16.93;;;4.70;99.90;;;;;;4929313;29;20486;-60
2023/12/13 06:36:00;;;;;;;24.80;15.73;;;4.80;99.90;;;;;;4929309;29;20499;-61
2023/12/13 06:38:27;;;;;;;20.63;14.40;;;4.80;99.90;;;;;;4933161;29;20843;-61
2023/12/13 06:40:55;;;;;;;25.27;15.80;;;4.70;99.90;;;;;;4927433;29;20498;-62
2023/12/13 06:43:21;;;;;;;21.00;14.13;;;4.80;99.90;;;;;;4921622;29;20495;-59
2023/12/13 06:45:48;;;;;;;19.10;15.27;;;4.80;99.90;;;;;;4923461;29;21135;-60
2023/12/13 06:48:14;;;;;;;23.27;15.03;;;4.80;99.90;;;;;;4922694;29;20554;-67
2023/12/13 06:50:41;;;;;;;20.00;14.47;;;4.80;99.90;;;;;;4933532;29;20526;-61
2023/12/13 06:53:07;;;;;;;19.30;14.60;;;4.80;99.90;;;;;;4927199;29;21008;-59
2023/12/13 06:55:34;;;;;;;22.63;14.13;;;4.80;99.90;;;;;;4925324;29;20910;-60
2023/12/13 06:58:02;;;;;;;20.27;14.27;;;4.80;99.90;;;;;;4927756;29;20464;-62
2023/12/13 07:00:29;;;;;;;19.23;13.77;;;4.80;99.90;;;;;;4932760;29;20460;-62
2023/12/13 07:02:55;;;;;;;18.23;14.80;;;4.80;99.90;;;;;;4931062;29;20966;-62
2023/12/13 07:05:22;;;;;;;21.27;12.73;;;4.80;99.90;;;;;;4932659;29;20981;-63
2023/12/13 07:07:48;;;;;;;19.00;14.90;;;4.80;99.90;;;;;;4933046;29;20646;-62
2023/12/13 07:10:17;;;;;;;16.43;13.23;;;4.90;99.90;;;;;;4926161;29;20976;-61
2023/12/13 07:12:43;;;;;;;17.63;13.23;;;4.80;99.90;;;;;;4930399;29;20577;-62
2023/12/13 07:15:12;;;;;;;18.10;13.40;;;4.80;99.90;;;;;;4929595;29;20471;-62
2023/12/13 07:17:38;;;;;;;18.40;14.23;;;4.80;99.90;;;;;;4930290;29;20467;-61
2023/12/13 07:20:07;;;;;;;19.87;14.07;;;4.80;99.90;;;;;;4932586;29;20463;-62
2023/12/13 07:22:34;;;;;;;18.33;15.47;;;4.90;99.90;;;;;;4930058;29;20519;-62
2023/12/13 07:25:01;;;;;;;25.37;17.53;;;4.90;99.90;;;;;;4931681;29;20467;-60
2023/12/13 07:27:27;;;;;;;32.13;19.13;;;4.90;99.90;;;;;;4927390;29;21339;-61
2023/12/13 07:29:54;;;;;;;42.10;27.57;;;4.90;99.90;;;;;;4930230;29;20902;-62
2023/12/13 07:32:22;;;;;;;59.00;34.90;;;4.90;99.90;;;;;;4927566;29;20515;-62
2023/12/13 07:34:48;;;;;;;31.50;21.00;;;4.90;99.90;;;;;;4930536;29;20544;-60
2023/12/13 07:37:15;;;;;;;21.00;15.20;;;4.90;99.90;;;;;;4931779;29;20665;-62
2023/12/13 07:39:42;;;;;;;18.23;13.00;;;4.90;99.90;;;;;;4928803;29;20522;-61
2023/12/13 07:42:09;;;;;;;13.63;12.17;;;4.90;99.90;;;;;;4928593;29;20455;-61
2023/12/13 07:44:35;;;;;;;17.17;13.70;;;4.90;99.90;;;;;;4932542;29;20455;-60
2023/12/13 07:47:02;;;;;;;18.37;12.73;;;4.90;99.90;;;;;;4925535;29;20483;-62
2023/12/13 07:49:30;;;;;;;17.83;14.00;;;4.90;99.90;;;;;;4931536;29;20523;-62
2023/12/13 07:51:56;;;;;;;21.23;14.77;;;5.00;99.90;;;;;;4928513;29;20471;-61
2023/12/13 07:54:23;;;;;;;17.83;13.77;;;4.90;99.90;;;;;;4921281;29;20873;-60
2023/12/13 07:56:52;;;;;;;17.03;13.53;;;5.00;99.90;;;;;;4933157;29;20522;-61
2023/12/13 07:59:18;;;;;;;19.40;14.07;;;5.00;99.90;;;;;;4931572;29;20467;-61
2023/12/13 08:01:45;;;;;;;17.17;13.60;;;5.00;99.90;;;;;;4924655;29;20555;-63
2023/12/13 08:04:12;;;;;;;17.77;13.87;;;5.00;99.90;;;;;;4930894;29;20644;-61
2023/12/13 08:06:39;;;;;;;22.27;14.20;;;5.10;99.90;;;;;;4929268;29;20479;-62
2023/12/13 08:09:09;;;;;;;19.40;15.30;;;5.00;99.90;;;;;;4922403;29;20870;-62
2023/12/13 08:11:35;;;;;;;21.37;14.77;;;5.00;99.90;;;;;;4927704;29;20455;-62
2023/12/13 08:14:03;;;;;;;19.83;14.67;;;5.00;99.90;;;;;;4929524;29;20572;-61
2023/12/13 08:16:29;;;;;;;18.13;15.10;;;5.00;99.90;;;;;;4925238;29;20488;-62
2023/12/13 08:18:57;;;;;;;25.13;17.03;;;5.10;99.90;;;;;;4929980;29;20514;-61
2023/12/13 08:21:24;;;;;;;16.40;13.33;;;5.10;99.90;;;;;;4926955;29;20456;-61
2023/12/13 08:23:53;;;;;;;21.40;15.47;;;5.10;99.90;;;;;;4919524;29;20471;-59
2023/12/13 08:26:21;;;;;;;24.63;15.93;;;5.10;99.90;;;;;;4932753;29;20626;-59
2023/12/13 08:28:47;;;;;;;23.77;15.67;;;5.10;99.90;;;;;;4934215;29;20447;-59
2023/12/13 08:31:14;;;;;;;20.70;14.67;;;5.10;99.90;;;;;;4927980;29;20946;-60
2023/12/13 08:33:42;;;;;;;20.20;16.17;;;5.10;99.90;;;;;;4929355;29;20515;-61
2023/12/13 08:36:10;;;;;;;21.53;16.23;;;5.20;99.90;;;;;;4927981;29;20483;-60
2023/12/13 08:38:37;;;;;;;22.37;15.50;;;5.20;99.90;;;;;;4927456;29;20896;-59
2023/12/13 08:41:07;;;;;;;22.60;16.83;;;5.20;99.90;;;;;;4922621;29;20474;-60
2023/12/13 08:43:34;;;;;;;22.00;16.20;;;5.20;99.90;;;;;;4927069;29;20455;-60
2023/12/13 08:46:01;;;;;;;23.53;16.50;;;5.20;99.90;;;;;;4930566;29;20507;-60
2023/12/13 08:48:28;;;;;;;17.13;14.37;;;5.20;99.90;;;;;;4927900;29;20467;-60
2023/12/13 08:50:55;;;;;;;18.63;14.70;;;5.30;99.90;;;;;;4929059;29;20468;-59
2023/12/13 08:53:21;;;;;;;18.27;14.83;;;5.20;99.90;;;;;;4926353;29;20577;-58
2023/12/13 08:55:48;;;;;;;17.73;15.17;;;5.30;99.90;;;;;;4928791;29;21331;-60
2023/12/13 08:58:16;;;;;;;23.33;15.60;;;5.30;99.90;;;;;;4927895;29;20969;-60
2023/12/13 09:00:42;;;;;;;19.50;16.30;;;5.30;99.90;;;;;;4928521;29;20888;-61
2023/12/13 09:03:09;;;;;;;20.20;15.50;;;5.30;99.90;;;;;;4924372;29;20463;-60
2023/12/13 09:05:37;;;;;;;17.03;14.33;;;5.30;99.90;;;;;;4927629;29;20578;-61
2023/12/13 09:08:04;;;;;;;20.00;14.00;;;5.20;99.90;;;;;;4926342;29;20503;-59
2023/12/13 09:10:34;;;;;;;18.17;14.10;;;5.20;99.90;;;;;;4925031;29;20492;-58
2023/12/13 09:13:01;;;;;;;17.53;14.90;;;5.20;99.90;;;;;;4925559;29;20505;-59
2023/12/13 09:15:29;;;;;;;19.03;14.80;;;5.20;99.90;;;;;;4926688;29;20468;-60
2023/12/13 09:17:56;;;;;;;16.60;14.13;;;5.20;99.90;;;;;;4928754;29;20468;-60
2023/12/13 09:20:22;;;;;;;27.00;14.60;;;5.30;99.90;;;;;;4929160;29;20498;-60
2023/12/13 09:22:49;;;;;;;18.80;14.30;;;5.30;99.90;;;;;;4930058;29;20550;-60
2023/12/13 09:25:16;;;;;;;19.10;14.20;;;5.30;87.60;;;;;;4929579;29;20534;-59
2023/12/13 09:27:43;;;;;;;16.40;13.40;;;5.40;99.90;;;;;;4923969;29;20474;-60
2023/12/13 09:30:11;;;;;;;16.17;12.97;;;5.30;99.90;;;;;;4924831;29;20462;-60
2023/12/13 09:32:39;;;;;;;15.53;13.70;;;5.20;78.90;;;;;;4924773;29;20473;-61
2023/12/13 09:35:06;;;;;;;20.50;14.50;;;5.20;78.10;;;;;;4930702;29;20522;-60
2023/12/13 09:37:33;;;;;;;16.20;12.13;;;5.30;96.20;;;;;;4922082;29;20874;-60
2023/12/13 09:40:00;;;;;;;16.20;13.17;;;5.30;96.60;;;;;;4922347;29;20459;-61
2023/12/13 09:42:27;;;;;;;15.87;12.90;;;5.30;99.90;;;;;;4927313;29;20492;-60
2023/12/13 09:44:54;;;;;;;18.80;13.40;;;5.40;99.90;;;;;;4925011;29;20536;-60
2023/12/13 09:47:23;;;;;;;16.30;13.07;;;5.30;98.70;;;;;;4928084;29;20525;-59
2023/12/13 09:49:52;;;;;;;21.57;13.70;;;5.30;99.90;;;;;;4925949;29;20558;-60
2023/12/13 09:52:21;;;;;;;16.43;13.53;;;5.40;99.90;;;;;;4928936;29;20811;-59
2023/12/13 09:54:48;;;;;;;13.40;12.00;;;5.40;99.90;;;;;;4927590;29;20920;-60
2023/12/13 09:57:15;;;;;;;16.90;12.50;;;5.40;99.90;;;;;;4930946;29;20522;-60
2023/12/13 09:59:42;;;;;;;12.60;10.87;;;5.30;84.80;;;;;;4930420;29;20459;-60
2023/12/13 10:02:12;;;;;;;22.00;12.47;;;5.30;20.40;;;;;;4928582;29;20585;-60
2023/12/13 10:04:39;;;;;;;16.33;12.67;;;5.30;74.80;;;;;;4926935;29;20466;-60
2023/12/13 10:07:08;;;;;;;14.73;11.50;;;5.40;99.90;;;;;;4925443;29;20949;-62
2023/12/13 10:09:35;;;;;;;15.80;11.50;;;5.30;22.30;;;;;;4926658;29;20990;-59
2023/12/13 10:12:02;;;;;;;15.47;11.47;;;5.40;96.70;;;;;;4929067;29;20503;-59
2023/12/13 10:14:29;;;;;;;16.63;11.63;;;5.40;90.20;;;;;;4928222;29;20584;-60
2023/12/13 10:16:56;;;;;;;14.33;12.07;;;5.40;89.00;;;;;;4932327;29;20518;-59
2023/12/13 10:19:23;;;;;;;15.70;11.20;;;5.30;99.90;;;;;;4929570;29;20497;-61
2023/12/13 10:21:50;;;;;;;14.43;11.70;;;5.40;99.90;;;;;;4930355;29;20511;-60
2023/12/13 10:24:18;;;;;;;16.90;12.73;;;5.40;99.90;;;;;;4929234;29;20890;-60
2023/12/13 10:26:45;;;;;;;13.27;11.13;;;5.30;92.00;;;;;;4931200;29;21115;-60
2023/12/13 10:29:11;;;;;;;18.63;11.53;;;5.30;90.90;;;;;;4931063;29;20458;-60
2023/12/13 10:31:38;;;;;;;16.93;11.73;;;5.30;90.90;;;;;;4932020;29;20522;-60
2023/12/13 10:34:05;;;;;;;21.10;11.33;;;5.30;99.90;;;;;;4926284;29;20528;-60
2023/12/13 10:36:32;;;;;;;15.00;11.20;;;5.20;97.60;;;;;;4929030;29;20483;-60
2023/12/13 10:39:00;;;;;;;16.23;11.83;;;5.20;97.40;;;;;;4932089;29;20960;-60
2023/12/13 10:41:28;;;;;;;12.90;10.67;;;5.30;99.90;;;;;;4929688;29;20495;-59
2023/12/13 10:43:56;;;;;;;12.23;10.93;;;5.40;99.90;;;;;;4929644;29;20823;-60
2023/12/13 10:46:23;;;;;;;13.80;10.63;;;5.40;99.90;;;;;;4930224;29;20482;-60
2023/12/13 10:48:50;;;;;;;14.73;11.47;;;5.40;99.90;;;;;;4932152;29;20475;-60
2023/12/13 10:51:18;;;;;;;12.40;10.40;;;5.30;90.00;;;;;;4931758;29;20499;-60
2023/12/13 10:53:46;;;;;;;14.60;11.17;;;5.40;99.90;;;;;;4924301;29;20539;-60
2023/12/13 10:56:14;;;;;;;17.30;11.90;;;5.30;96.00;;;;;;4934589;29;20480;-59
2023/12/13 10:58:44;;;;;;;14.60;11.43;;;5.40;99.90;;;;;;4935675;29;20840;-60
2023/12/13 11:01:11;;;;;;;16.47;12.27;;;5.40;99.90;;;;;;4926855;29;20526;-59
2023/12/13 11:03:43;;;;;;;14.93;11.93;;;5.40;89.90;;;;;;4928261;29;20463;-60
2023/12/13 11:06:13;;;;;;;13.57;11.30;;;5.30;78.40;;;;;;4925995;29;20482;-60
2023/12/13 11:08:41;;;;;;;16.30;12.90;;;5.30;97.20;;;;;;4933638;29;20455;-59
2023/12/13 11:11:09;;;;;;;15.80;12.30;;;5.40;96.80;;;;;;4923942;29;20463;-59
2023/12/13 11:13:40;;;;;;;14.93;12.70;;;5.40;97.90;;;;;;4926185;29;20492;-59
2023/12/13 11:16:19;;;;;;;12.23;10.70;;;5.40;99.90;;;;;;4934838;29;20558;-59
2023/12/13 11:18:46;;;;;;;14.07;11.47;;;5.40;73.60;;;;;;4936380;29;20506;-58
2023/12/13 11:21:24;;;;;;;15.40;10.57;;;5.50;99.90;;;;;;4934212;29;20479;-58
2023/12/13 11:23:52;;;;;;;13.90;11.23;;;5.40;99.80;;;;;;4929565;29;20941;-58
2023/12/13 11:26:21;;;;;;;14.40;11.50;;;5.50;99.90;;;;;;4961431;23;20496;-57
2023/12/13 11:28:50;;;;;;;14.53;11.30;;;5.50;99.90;;;;;;4986837;28;20544;-57
2023/12/13 11:31:22;;;;;;;11.83;9.17;;;5.50;99.90;;;;;;4987940;28;20621;-56
2023/12/13 11:33:49;;;;;;;14.67;12.37;;;5.30;84.00;;;;;;4984681;28;20555;-56
2023/12/13 11:36:18;;;;;;;15.40;11.60;;;5.30;20.80;;;;;;4977739;28;20462;-56
2023/12/13 11:38:45;;;;;;;15.27;12.20;;;5.40;95.30;;;;;;4971961;28;20508;-56
2023/12/13 11:41:12;;;;;;;13.87;12.30;;;5.40;94.50;;;;;;4962569;28;20442;-55
2023/12/13 11:43:39;;;;;;;15.53;11.20;;;5.40;99.90;;;;;;4973067;28;20496;-56
2023/12/13 11:46:05;;;;;;;14.67;11.60;;;5.40;99.90;;;;;;4962123;28;20470;-56
2023/12/13 11:48:33;;;;;;;14.53;11.50;;;5.40;88.20;;;;;;4966593;28;20881;-56
2023/12/13 11:51:00;;;;;;;15.10;12.37;;;5.40;91.70;;;;;;4966263;28;20445;-56
2023/12/13 11:53:27;;;;;;;14.03;11.67;;;5.30;99.10;;;;;;4973087;28;21033;-55
2023/12/13 11:55:53;;;;;;;14.17;11.93;;;5.30;85.90;;;;;;4967421;28;20870;-56
2023/12/13 11:58:20;;;;;;;17.40;13.03;;;5.40;99.90;;;;;;4965204;28;20446;-56
2023/12/13 12:00:46;;;;;;;16.23;12.80;;;5.30;99.90;;;;;;4967489;28;20445;-56
2023/12/13 12:03:13;;;;;;;15.70;12.80;;;5.30;99.90;;;;;;4963744;28;20446;-56
2023/12/13 12:05:43;;;;;;;17.43;13.60;;;5.40;99.90;;;;;;4968194;28;20473;-55
2023/12/13 12:08:11;;;;;;;22.90;17.07;;;5.40;99.90;;;;;;4967367;28;20452;-55
2023/12/13 12:10:38;;;;;;;18.00;14.57;;;5.40;99.90;;;;;;4966446;28;20445;-56
2023/12/13 12:13:05;;;;;;;16.03;13.70;;;5.30;99.90;;;;;;4963723;28;20946;-55
2023/12/13 12:15:31;;;;;;;17.57;12.93;;;5.40;99.90;;;;;;4968469;28;20885;-55
2023/12/13 12:17:59;;;;;;;15.13;12.73;;;5.30;99.90;;;;;;4963590;28;20852;-56
2023/12/13 12:20:26;;;;;;;18.73;14.90;;;5.40;99.90;;;;;;4963624;28;20917;-56
2023/12/13 12:22:55;;;;;;;20.63;14.50;;;5.30;99.90;;;;;;4967431;28;20458;-56
2023/12/13 12:25:24;;;;;;;19.73;14.23;;;5.30;99.90;;;;;;4970851;28;20453;-56
2023/12/13 12:27:52;;;;;;;18.00;15.17;;;5.40;99.90;;;;;;4965874;28;20483;-56
2023/12/13 12:30:21;;;;;;;19.83;15.07;;;5.40;99.90;;;;;;4968002;28;20971;-56
2023/12/13 12:32:48;;;;;;;18.13;13.73;;;5.30;99.90;;;;;;4968951;28;20453;-55
2023/12/13 12:35:15;;;;;;;17.83;13.10;;;5.40;99.90;;;;;;4968475;28;20490;-55
2023/12/13 12:37:42;;;;;;;19.17;15.07;;;5.30;99.90;;;;;;4964635;28;20515;-56
2023/12/13 12:40:10;;;;;;;18.70;15.03;;;5.40;99.90;;;;;;4965254;28;20455;-56